KSTK/STK METAR and TAF weather

Enter ICAO airport designator
Station Type Date Time Source
KSTK METAR 2022/01/27 23:15 UTC NOAA

KSTK 272315Z AUTO 29015G20KT 10SM SCT034 SCT043 OVC060 01/M04 A3039 RMK AO2


Station Type Date Time Source
KSTK Decoded METAR 2022/01/27 23:15 UTC NOAA

Station name not available
Jan 27, 2022 - 06:15 PM EST / 2022.01.27 2315 UTC
Wind: from the WNW (290 degrees) at 17 MPH (15 KT) gusting to 23 MPH (20 KT):0
Visibility: 10 mile(s):0
Sky conditions: overcast
Temperature: 33 F (1 C)
Windchill: 23 F (-5 C):1
Dew Point: 24 F (-4 C)
Relative Humidity: 69%
Pressure (altimeter): 30.39 in. Hg (1029 hPa)
ob: KSTK 272315Z AUTO 29015G20KT 10SM SCT034 SCT043 OVC060 01/M04 A3039 RMK AO2
cycle: 23

Station Type Date Time Source
KSTK TAF UTC NOAA

Error!

Example: see airport list